Time;durP1;ratioP1;P1;durP2;ratioP2;P2;SDS_P1;SDS_P2;PMS_P1;PMS_P2;Temp;Humidity;BMP_temperature;BMP_pressure;BME280_temperature;BME280_humidity;BME280_pressure;Samples;Min_cycle;Max_cycle;Signal;HPM_P1;HPM_P2
2022/11/20 00:02:15;;;;;;;;;;;;;;;2.57;95.78;99447.84;4404004;32;35214;-67
2022/11/20 00:05:02;;;;;;;;;;;;;;;2.23;97.22;99438.19;4404163;32;35132;-67
2022/11/20 00:07:47;;;;;;;;;;;;;;;2.14;98.94;99438.94;4412613;32;34572;-67
2022/11/20 00:10:36;;;;;;;;;;;;;;;2.02;99.02;99436.41;4404303;32;35736;-67
2022/11/20 00:13:21;;;;;;;;;;;;;;;2.10;99.84;99441.34;4404028;32;35779;-67
2022/11/20 00:16:09;;;;;;;;;;;;;;;1.62;100.00;99443.13;4403067;32;34855;-67
2022/11/20 00:18:55;;;;;;;;;;;;;;;1.39;100.00;99444.25;4402341;32;35787;-66
2022/11/20 00:21:41;;;;;;;;;;;;;;;0.85;100.00;99445.06;4402002;32;35280;-66
2022/11/20 00:24:30;;;;;;;;;;;;;;;1.00;100.00;99459.78;4404145;32;34325;-67
2022/11/20 00:27:16;;;;;;;;;;;;;;;2.43;100.00;99459.13;4391749;32;34971;-67
2022/11/20 00:30:02;;;;;;;;;;;;;;;2.67;100.00;99443.28;4404002;32;34915;-67
2022/11/20 00:32:48;;;;;;;;;;;;;;;3.31;98.87;99442.16;4403999;32;34911;-67
2022/11/20 00:35:34;;;;;;;;;;;;;;;3.56;96.55;99444.09;4402476;32;34905;-67
2022/11/20 00:38:20;;;;;;;;;;;;;;;3.60;96.18;99458.72;4413544;32;34259;-67
2022/11/20 00:41:07;;;;;;;;;;;;;;;3.58;96.02;99466.28;4404117;32;34833;-67
2022/11/20 00:43:54;;;;;;;;;;;;;;;3.43;97.24;99457.34;4402835;32;36864;-67
2022/11/20 00:46:40;;;;;;;;;;;;;;;3.02;98.22;99455.34;4402815;32;35317;-67
2022/11/20 00:49:26;;;;;;;;;;;;;;;3.12;97.44;99436.41;4403877;32;34232;-67
2022/11/20 00:52:12;;;;;;;;;;;;;;;3.50;90.34;99428.09;4404097;32;34832;-67
2022/11/20 00:54:58;;;;;;;;;;;;;;;3.06;92.15;99433.97;4403919;32;36152;-67
2022/11/20 00:57:44;;;;;;;;;;;;;;;3.28;90.80;99431.84;4403730;32;35957;-67
2022/11/20 01:00:31;;;;;;;;;;;;;;;3.14;91.35;99425.31;4403770;32;34275;-67
2022/11/20 01:03:17;;;;;;;;;;;;;;;2.72;93.21;99433.56;4398397;32;34817;-67
2022/11/20 01:06:30;;;;;;;;;;;;;;;2.50;96.01;99434.53;4402025;32;35299;-67
2022/11/20 01:09:16;;;;;;;;;;;;;;;2.98;92.40;99437.19;4391996;32;35452;-67
2022/11/20 01:12:02;;;;;;;;;;;;;;;2.95;92.26;99449.34;4403758;32;34931;-68
2022/11/20 01:14:48;;;;;;;;;;;;;;;2.04;96.97;99445.09;4403513;32;34925;-67
2022/11/20 01:17:34;;;;;;;;;;;;;;;1.84;98.16;99450.34;4401886;32;35775;-67
2022/11/20 01:20:20;;;;;;;;;;;;;;;1.79;98.62;99454.63;4401951;32;34405;-67
2022/11/20 01:23:06;;;;;;;;;;;;;;;1.53;100.00;99463.56;4402843;32;34095;-68
2022/11/20 01:25:52;;;;;;;;;;;;;;;1.74;100.00;99467.28;4402811;32;35618;-68
2022/11/20 01:28:38;;;;;;;;;;;;;;;1.68;100.00;99466.44;4402558;32;36039;-68
2022/11/20 01:31:28;;;;;;;;;;;;;;;2.19;100.00;99455.19;4390198;32;35692;-68
2022/11/20 01:34:16;;;;;;;;;;;;;;;2.50;100.00;99448.06;4401142;32;35519;-67
2022/11/20 01:37:02;;;;;;;;;;;;;;;2.35;99.57;99450.69;4400891;32;35862;-68
2022/11/20 01:39:48;;;;;;;;;;;;;;;2.26;100.00;99447.66;4402600;32;35288;-67
2022/11/20 01:45:46;;;;;;;;;;;;;;;2.04;100.00;99436.97;4391017;32;33799;-67
2022/11/20 01:48:43;;;;;;;;;;;;;;;2.18;100.00;99443.56;4403399;32;34865;-67
2022/11/20 01:51:33;;;;;;;;;;;;;;;1.75;100.00;99436.50;4402100;32;35098;-68
2022/11/20 01:54:21;;;;;;;;;;;;;;;2.42;99.51;99430.47;4402127;32;33697;-68
2022/11/20 01:57:08;;;;;;;;;;;;;;;2.35;100.00;99429.87;4390759;32;35209;-68
2022/11/20 01:59:54;;;;;;;;;;;;;;;3.01;97.46;99429.34;4390424;32;35799;-68
2022/11/20 02:02:42;;;;;;;;;;;;;;;3.36;96.08;99427.81;4400459;32;35183;-67
2022/11/20 02:05:30;;;;;;;;;;;;;;;3.73;92.85;99433.00;4400439;32;34949;-67
2022/11/20 02:08:16;;;;;;;;;;;;;;;3.82;92.07;99430.56;4401480;32;34146;-68
2022/11/20 02:11:02;;;;;;;;;;;;;;;3.79;91.63;99431.09;4400982;32;36362;-67
2022/11/20 02:13:48;;;;;;;;;;;;;;;3.75;92.11;99438.94;4402207;32;35257;-67
2022/11/20 02:16:37;;;;;;;;;;;;;;;3.75;92.49;99432.72;4402064;32;34342;-68
2022/11/20 02:19:24;;;;;;;;;;;;;;;3.66;92.88;99427.03;4411481;32;34972;-68
2022/11/20 02:22:13;;;;;;;;;;;;;;;3.94;91.43;99430.28;4400590;32;34821;-67
2022/11/20 02:24:58;;;;;;;;;;;;;;;3.74;91.25;99440.03;4401138;32;36163;-68
2022/11/20 02:27:44;;;;;;;;;;;;;;;3.82;92.05;99446.81;4390033;32;34484;-67
2022/11/20 02:30:30;;;;;;;;;;;;;;;2.12;100.00;99441.09;4400549;32;34940;-67
2022/11/20 02:33:16;;;;;;;;;;;;;;;2.34;100.00;99430.16;4402293;32;35447;-67
2022/11/20 02:36:02;;;;;;;;;;;;;;;3.33;98.00;99422.91;4400615;32;35252;-67
2022/11/20 02:38:48;;;;;;;;;;;;;;;3.74;94.10;99425.66;4402541;32;34997;-67
2022/11/20 02:41:35;;;;;;;;;;;;;;;3.87;92.45;99422.44;4401599;32;33790;-67
2022/11/20 02:44:21;;;;;;;;;;;;;;;3.68;92.97;99418.62;4402760;32;34843;-67
2022/11/20 02:47:08;;;;;;;;;;;;;;;3.88;93.60;99415.09;4404474;32;35314;-68
2022/11/20 02:49:54;;;;;;;;;;;;;;;4.11;92.09;99411.81;4403154;32;35114;-68
2022/11/20 02:52:40;;;;;;;;;;;;;;;4.17;91.44;99415.34;4403054;32;33839;-67
2022/11/20 02:55:26;;;;;;;;;;;;;;;4.14;91.25;99427.53;4403008;32;34906;-67
2022/11/20 02:58:12;;;;;;;;;;;;;;;4.13;91.81;99419.69;4404431;32;35271;-67
2022/11/20 03:00:58;;;;;;;;;;;;;;;4.12;92.53;99407.19;4404547;32;35025;-68
2022/11/20 03:03:44;;;;;;;;;;;;;;;3.98;92.91;99398.81;4404322;32;34626;-67
2022/11/20 03:06:30;;;;;;;;;;;;;;;3.94;94.59;99395.84;4404434;32;35367;-67
2022/11/20 03:09:16;;;;;;;;;;;;;;;3.62;97.02;99404.28;4404181;32;35158;-67
2022/11/20 03:12:02;;;;;;;;;;;;;;;4.02;95.56;99397.19;4404630;32;35645;-67
2022/11/20 03:14:48;;;;;;;;;;;;;;;4.00;94.84;99399.34;4404483;32;34090;-67
2022/11/20 03:17:38;;;;;;;;;;;;;;;4.10;94.75;99398.53;4413270;32;34822;-68
2022/11/20 03:20:24;;;;;;;;;;;;;;;3.67;96.61;99400.72;4413790;32;34597;-67
2022/11/20 03:23:10;;;;;;;;;;;;;;;4.12;94.97;99413.44;4404357;32;34953;-68
2022/11/20 03:25:55;;;;;;;;;;;;;;;3.90;95.95;99430.00;4404521;32;34712;-68
2022/11/20 03:28:42;;;;;;;;;;;;;;;4.05;94.92;99426.47;4403029;32;35696;-68
2022/11/20 03:31:29;;;;;;;;;;;;;;;3.91;96.19;99428.91;4402713;32;35257;-67
2022/11/20 03:34:15;;;;;;;;;;;;;;;3.77;96.61;99422.41;4404404;32;34826;-68
2022/11/20 03:37:01;;;;;;;;;;;;;;;3.96;97.22;99414.56;4404140;32;34879;-68
2022/11/20 03:39:47;;;;;;;;;;;;;;;4.03;96.19;99420.50;4404087;32;34916;-68
2022/11/20 03:42:45;;;;;;;;;;;;;;;4.16;96.22;99413.72;4404302;32;36200;-67
2022/11/20 03:45:32;;;;;;;;;;;;;;;3.84;97.82;99409.38;4404152;32;35948;-67
2022/11/20 03:48:18;;;;;;;;;;;;;;;3.93;97.71;99407.78;4402635;32;34244;-68
2022/11/20 03:51:07;;;;;;;;;;;;;;;2.88;100.00;99417.13;4404190;32;34616;-67
2022/11/20 03:53:54;;;;;;;;;;;;;;;3.10;100.00;99421.50;4399520;32;36236;-68
2022/11/20 03:56:40;;;;;;;;;;;;;;;3.21;100.00;99419.66;4403210;32;34922;-67
2022/11/20 03:59:26;;;;;;;;;;;;;;;3.52;100.00;99426.72;4404332;32;34182;-67
2022/11/20 04:02:12;;;;;;;;;;;;;;;2.67;100.00;99424.34;4409284;32;35900;-67
2022/11/20 04:04:59;;;;;;;;;;;;;;;2.49;100.00;99397.78;4419144;32;34783;-67
2022/11/20 04:07:45;;;;;;;;;;;;;;;3.33;100.00;99401.25;4419282;32;34454;-68
2022/11/20 04:10:31;;;;;;;;;;;;;;;3.02;100.00;99387.69;4419039;32;35131;-67
2022/11/20 04:13:16;;;;;;;;;;;;;;;3.38;100.00;99401.25;4419265;32;35894;-67
2022/11/20 04:16:02;;;;;;;;;;;;;;;2.25;100.00;99390.09;4391673;32;36243;-67
2022/11/20 04:18:55;;;;;;;;;;;;;;;2.61;100.00;99375.91;4403924;32;35819;-68
2022/11/20 04:21:41;;;;;;;;;;;;;;;1.99;100.00;99375.63;4391705;32;34914;-67
2022/11/20 04:24:27;;;;;;;;;;;;;;;2.18;100.00;99370.56;4391288;32;35645;-67
2022/11/20 04:27:13;;;;;;;;;;;;;;;2.11;100.00;99375.41;4405631;32;36168;-67
2022/11/20 04:29:59;;;;;;;;;;;;;;;1.62;100.00;99378.31;4391856;32;34906;-67
2022/11/20 04:32:45;;;;;;;;;;;;;;;1.44;100.00;99379.53;4403835;32;34202;-68
2022/11/20 04:35:33;;;;;;;;;;;;;;;2.37;100.00;99383.66;4403710;32;34963;-67
2022/11/20 04:38:19;;;;;;;;;;;;;;;2.64;100.00;99372.66;4392192;32;35348;-67
2022/11/20 04:41:06;;;;;;;;;;;;;;;3.29;100.00;99373.09;4403692;32;35839;-68
2022/11/20 04:43:53;;;;;;;;;;;;;;;3.22;100.00;99367.13;4394790;32;34362;-67
2022/11/20 04:46:39;;;;;;;;;;;;;;;2.89;100.00;99361.13;4407006;32;35216;-68
2022/11/20 04:49:25;;;;;;;;;;;;;;;3.03;100.00;99373.06;4407416;32;35510;-67
2022/11/20 04:52:11;;;;;;;;;;;;;;;2.90;100.00;99360.03;4407069;32;35665;-68
2022/11/20 04:54:57;;;;;;;;;;;;;;;2.80;100.00;99351.91;4406873;32;34939;-68
2022/11/20 04:57:43;;;;;;;;;;;;;;;3.50;100.00;99347.66;4403722;32;34553;-67
2022/11/20 05:00:29;;;;;;;;;;;;;;;3.21;100.00;99346.53;4391716;32;35079;-67
2022/11/20 05:03:15;;;;;;;;;;;;;;;2.45;100.00;99358.81;4403483;32;35180;-68
2022/11/20 05:06:02;;;;;;;;;;;;;;;3.29;100.00;99356.84;4403022;32;34221;-67
2022/11/20 05:08:48;;;;;;;;;;;;;;;3.26;100.00;99363.59;4403335;32;35598;-67
2022/11/20 05:11:34;;;;;;;;;;;;;;;2.32;100.00;99375.50;4402403;32;35245;-67
2022/11/20 05:14:20;;;;;;;;;;;;;;;2.63;100.00;99371.84;4402128;32;35710;-68
2022/11/20 05:17:09;;;;;;;;;;;;;;;3.36;100.00;99354.69;4403281;32;34269;-67
2022/11/20 05:19:55;;;;;;;;;;;;;;;3.55;100.00;99350.34;4401624;32;34437;-67
2022/11/20 05:22:41;;;;;;;;;;;;;;;3.60;100.00;99360.37;4403574;32;36230;-68
2022/11/20 05:25:27;;;;;;;;;;;;;;;3.75;100.00;99373.09;4412640;32;34584;-67
2022/11/20 05:28:14;;;;;;;;;;;;;;;4.04;99.32;99357.03;4402328;32;34105;-67
2022/11/20 05:31:06;;;;;;;;;;;;;;;3.10;100.00;99343.84;4403010;32;35870;-67
2022/11/20 05:33:52;;;;;;;;;;;;;;;2.72;100.00;99341.59;4412701;32;34890;-67
2022/11/20 05:36:38;;;;;;;;;;;;;;;2.90;100.00;99332.97;4402029;32;35888;-67
2022/11/20 05:39:24;;;;;;;;;;;;;;;3.49;100.00;99315.41;4403112;32;34632;-67
2022/11/20 05:45:15;;;;;;;;;;;;;;;3.04;100.00;99341.38;4403432;32;35213;-67
2022/11/20 05:48:00;;;;;;;;;;;;;;;3.17;100.00;99340.88;4402606;32;35704;-67
2022/11/20 05:50:47;;;;;;;;;;;;;;;2.99;100.00;99353.03;4401931;32;34078;-68
2022/11/20 05:53:33;;;;;;;;;;;;;;;2.38;100.00;99355.53;4401121;32;34850;-67
2022/11/20 05:56:20;;;;;;;;;;;;;;;1.41;100.00;99350.34;4401838;32;36134;-68
2022/11/20 05:59:06;;;;;;;;;;;;;;;1.68;100.00;99368.34;4400429;32;34517;-67
2022/11/20 06:01:52;;;;;;;;;;;;;;;1.24;100.00;99361.25;4402556;32;35370;-67
2022/11/20 06:04:38;;;;;;;;;;;;;;;1.29;100.00;99358.63;4401238;32;34955;-67
2022/11/20 06:07:24;;;;;;;;;;;;;;;1.02;100.00;99377.50;4401351;32;35476;-68
2022/11/20 06:10:10;;;;;;;;;;;;;;;1.85;100.00;99368.22;4396680;32;35481;-67
2022/11/20 06:12:59;;;;;;;;;;;;;;;1.83;100.00;99363.06;4400203;32;33808;-67
2022/11/20 06:15:52;;;;;;;;;;;;;;;1.37;100.00;99375.41;4400249;32;37393;-67
2022/11/20 06:18:38;;;;;;;;;;;;;;;1.23;100.00;99359.66;4403361;32;35154;-67
2022/11/20 06:21:24;;;;;;;;;;;;;;;1.35;100.00;99368.37;4402527;32;34455;-67
2022/11/20 06:24:10;;;;;;;;;;;;;;;0.93;100.00;99372.84;4403754;32;34609;-67
2022/11/20 06:26:56;;;;;;;;;;;;;;;1.13;100.00;99367.63;4400170;32;34967;-68
2022/11/20 06:29:42;;;;;;;;;;;;;;;0.97;100.00;99364.00;4403672;32;35084;-67
2022/11/20 06:32:28;;;;;;;;;;;;;;;1.09;100.00;99374.63;4404403;32;35216;-68
2022/11/20 06:35:14;;;;;;;;;;;;;;;1.00;100.00;99387.75;4404470;32;34309;-67
2022/11/20 06:38:00;;;;;;;;;;;;;;;0.97;100.00;99404.47;4403650;32;34559;-67
2022/11/20 06:40:46;;;;;;;;;;;;;;;0.82;100.00;99407.78;4404360;32;36104;-68
2022/11/20 06:43:32;;;;;;;;;;;;;;;1.08;100.00;99408.06;4404122;32;36470;-67
2022/11/20 06:46:18;;;;;;;;;;;;;;;1.13;100.00;99414.31;4404217;32;35044;-67
2022/11/20 06:49:05;;;;;;;;;;;;;;;1.62;100.00;99415.31;4403346;32;34613;-67
2022/11/20 06:51:51;;;;;;;;;;;;;;;2.20;100.00;99413.56;4399931;32;36143;-67
2022/11/20 06:54:36;;;;;;;;;;;;;;;1.32;100.00;99412.09;4403464;32;35627;-68
2022/11/20 06:57:22;;;;;;;;;;;;;;;1.24;100.00;99399.03;4403408;32;34129;-68
2022/11/20 07:00:09;;;;;;;;;;;;;;;2.20;100.00;99390.06;4403917;32;35880;-67
2022/11/20 07:02:54;;;;;;;;;;;;;;;1.88;100.00;99392.00;4404537;32;35288;-67
2022/11/20 07:05:41;;;;;;;;;;;;;;;1.57;100.00;99391.78;4403811;32;34906;-67
2022/11/20 07:08:27;;;;;;;;;;;;;;;1.18;100.00;99400.06;4404117;32;34090;-67
2022/11/20 07:11:13;;;;;;;;;;;;;;;1.29;100.00;99407.19;4403370;32;35011;-67
2022/11/20 07:13:59;;;;;;;;;;;;;;;1.77;100.00;99401.94;4404294;32;35273;-67
2022/11/20 07:16:46;;;;;;;;;;;;;;;1.66;100.00;99416.44;4403704;32;34850;-68
2022/11/20 07:19:31;;;;;;;;;;;;;;;1.74;100.00;99416.78;4402609;32;34986;-68
2022/11/20 07:22:18;;;;;;;;;;;;;;;1.77;100.00;99418.97;4402117;32;34838;-67
2022/11/20 07:25:04;;;;;;;;;;;;;;;2.04;100.00;99415.34;4402617;32;35196;-67
2022/11/20 07:27:50;;;;;;;;;;;;;;;1.62;100.00;99418.00;4400102;32;35608;-67
2022/11/20 07:30:36;;;;;;;;;;;;;;;1.39;100.00;99427.25;4401652;32;34066;-67
2022/11/20 07:33:22;;;;;;;;;;;;;;;1.23;100.00;99429.81;4404306;32;34651;-67
2022/11/20 07:36:08;;;;;;;;;;;;;;;1.10;100.00;99425.62;4403825;32;35287;-68
2022/11/20 07:38:54;;;;;;;;;;;;;;;1.15;100.00;99422.19;4402806;32;34568;-67
2022/11/20 07:41:40;;;;;;;;;;;;;;;1.60;100.00;99418.28;4402415;32;33998;-67
2022/11/20 07:44:26;;;;;;;;;;;;;;;1.92;100.00;99428.25;4402646;32;34161;-67
2022/11/20 07:47:12;;;;;;;;;;;;;;;1.29;100.00;99422.59;4403244;32;35933;-67
2022/11/20 07:49:59;;;;;;;;;;;;;;;1.42;100.00;99432.94;4404208;32;35061;-67
2022/11/20 07:52:44;;;;;;;;;;;;;;;1.38;100.00;99431.03;4397415;32;34583;-67
2022/11/20 07:55:30;;;;;;;;;;;;;;;1.38;100.00;99431.03;4400464;32;34812;-67
2022/11/20 07:58:16;;;;;;;;;;;;;;;1.84;100.00;99416.03;4402659;32;35272;-67
2022/11/20 08:01:06;;;;;;;;;;;;;;;1.90;100.00;99417.69;4401067;32;34320;-67
2022/11/20 08:03:52;;;;;;;;;;;;;;;3.03;100.00;99415.56;4403413;32;34748;-67
2022/11/20 08:06:38;;;;;;;;;;;;;;;3.46;100.00;99405.34;4402535;32;34948;-67
2022/11/20 08:09:24;;;;;;;;;;;;;;;3.97;100.00;99392.59;4403140;32;33993;-68
2022/11/20 08:15:21;;;;;;;;;;;;;;;1.73;100.00;99396.22;4403173;32;35536;-67
2022/11/20 08:18:08;;;;;;;;;;;;;;;2.94;100.00;99404.44;4401085;32;34923;-67
2022/11/20 08:21:15;;;;;;;;;;;;;;;3.53;100.00;99406.72;4381478;32;34499;-67
2022/11/20 08:24:00;;;;;;;;;;;;;;;2.84;100.00;99409.81;4390914;32;35901;-67
2022/11/20 08:26:47;;;;;;;;;;;;;;;2.22;100.00;99398.72;4390079;32;35169;-67
2022/11/20 08:29:32;;;;;;;;;;;;;;;2.63;100.00;99398.09;4386572;32;87710;-67
2022/11/20 08:32:19;;;;;;;;;;;;;;;2.69;100.00;99397.84;4391530;32;33473;-68
2022/11/20 08:35:05;;;;;;;;;;;;;;;2.22;100.00;99403.28;4391225;32;34431;-67
2022/11/20 08:37:51;;;;;;;;;;;;;;;1.97;100.00;99422.88;4390665;32;34047;-68
2022/11/20 08:40:37;;;;;;;;;;;;;;;2.39;100.00;99409.38;4378885;32;34968;-67
2022/11/20 08:43:22;;;;;;;;;;;;;;;2.81;100.00;99413.84;4390133;32;36007;-66
2022/11/20 08:46:08;;;;;;;;;;;;;;;2.70;100.00;99417.59;4391701;32;35209;-68
2022/11/20 08:48:55;;;;;;;;;;;;;;;2.49;100.00;99424.81;4382333;32;33779;-67
2022/11/20 08:51:41;;;;;;;;;;;;;;;2.27;100.00;99424.16;4378986;32;35238;-67
2022/11/20 08:54:27;;;;;;;;;;;;;;;2.55;100.00;99436.47;4389972;32;35624;-67
2022/11/20 08:57:13;;;;;;;;;;;;;;;2.84;100.00;99443.06;4391402;32;35530;-67
2022/11/20 08:59:59;;;;;;;;;;;;;;;2.98;100.00;99438.00;4390591;32;34020;-68
2022/11/20 09:02:54;;;;;;;;;;;;;;;3.62;100.00;99446.81;4379913;32;34917;-68
2022/11/20 09:05:40;;;;;;;;;;;;;;;4.19;100.00;99446.50;4391149;32;33284;-67
2022/11/20 09:08:27;;;;;;;;;;;;;;;3.22;100.00;99448.38;4388459;32;34486;-67
2022/11/20 09:11:13;;;;;;;;;;;;;;;2.93;100.00;99446.94;4378620;32;33662;-68
2022/11/20 09:13:59;;;;;;;;;;;;;;;2.63;100.00;99453.00;4390920;32;34993;-67
2022/11/20 09:16:46;;;;;;;;;;;;;;;3.09;100.00;99447.78;4391443;32;33626;-67
2022/11/20 09:19:32;;;;;;;;;;;;;;;2.94;100.00;99450.44;4378101;32;33747;-67
2022/11/20 09:22:39;;;;;;;;;;;;;;;3.04;100.00;99457.78;4390471;32;35121;-69
2022/11/20 09:25:25;;;;;;;;;;;;;;;3.35;100.00;99450.53;4388898;32;35857;-69
2022/11/20 09:28:11;;;;;;;;;;;;;;;3.23;100.00;99447.28;4380057;32;35166;-68
2022/11/20 09:30:57;;;;;;;;;;;;;;;2.82;100.00;99439.03;4390161;32;34133;-68
2022/11/20 09:33:43;;;;;;;;;;;;;;;2.76;100.00;99440.91;4390726;32;33236;-68
2022/11/20 09:36:29;;;;;;;;;;;;;;;2.72;100.00;99433.56;4389861;32;33090;-74
2022/11/20 09:39:15;;;;;;;;;;;;;;;2.59;100.00;99440.25;4390361;32;37928;-73
2022/11/20 09:42:01;;;;;;;;;;;;;;;3.17;100.00;99440.22;4389679;32;35077;-73
2022/11/20 09:44:59;;;;;;;;;;;;;;;2.66;100.00;99438.97;4390907;32;34972;-73
2022/11/20 09:47:55;;;;;;;;;;;;;;;2.31;100.00;99436.87;4377675;32;33011;-74
2022/11/20 09:50:53;;;;;;;;;;;;;;;2.50;100.00;99436.44;4388718;32;35305;-73
2022/11/20 09:53:58;;;;;;;;;;;;;;;2.41;100.00;99438.81;4378772;32;34970;-73
2022/11/20 09:56:45;;;;;;;;;;;;;;;2.83;100.00;99441.47;4391337;32;34095;-73
2022/11/20 09:59:30;;;;;;;;;;;;;;;2.56;100.00;99430.81;4379258;32;34555;-74
2022/11/20 10:02:22;;;;;;;;;;;;;;;2.83;100.00;99437.94;4390879;32;36769;-74
2022/11/20 10:05:14;;;;;;;;;;;;;;;2.85;100.00;99433.09;4391903;32;33652;-73
2022/11/20 10:08:20;;;;;;;;;;;;;;;2.70;100.00;99429.25;4389035;32;34262;-73
2022/11/20 10:11:10;;;;;;;;;;;;;;;2.87;100.00;99428.22;4392230;32;34321;-73
2022/11/20 10:14:00;;;;;;;;;;;;;;;2.93;100.00;99417.16;4390433;32;36224;-73
2022/11/20 10:16:59;;;;;;;;;;;;;;;3.15;100.00;99408.81;4381089;32;33664;-74
2022/11/20 10:19:48;;;;;;;;;;;;;;;3.33;100.00;99406.66;4390187;32;33187;-74
2022/11/20 10:22:46;;;;;;;;;;;;;;;3.55;100.00;99401.81;4391605;32;33264;-73
2022/11/20 10:25:42;;;;;;;;;;;;;;;3.30;100.00;99386.38;4391725;32;35291;-73
2022/11/20 10:28:44;;;;;;;;;;;;;;;3.33;100.00;99393.13;4379860;32;35682;-74
2022/11/20 10:32:00;;;;;;;;;;;;;;;3.07;100.00;99393.06;4391924;32;35033;-74
2022/11/20 10:34:49;;;;;;;;;;;;;;;3.87;100.00;99395.31;4380829;32;36389;-73
2022/11/20 10:37:34;;;;;;;;;;;;;;;3.77;100.00;99379.88;4380409;32;36003;-74
2022/11/20 10:40:25;;;;;;;;;;;;;;;3.60;100.00;99379.34;4382031;32;35331;-73
2022/11/20 10:43:46;;;;;;;;;;;;;;;3.93;100.00;99383.37;4391489;32;33413;-74
2022/11/20 10:46:37;;;;;;;;;;;;;;;3.90;100.00;99381.22;4333421;33;34110;-74
2022/11/20 10:49:22;;;;;;;;;;;;;;;3.98;100.00;99375.22;4389666;32;35784;-74
2022/11/20 10:52:28;;;;;;;;;;;;;;;4.03;100.00;99383.34;4391972;32;34294;-74
2022/11/20 10:55:14;;;;;;;;;;;;;;;3.92;100.00;99376.31;4391508;32;34585;-73
2022/11/20 10:58:02;;;;;;;;;;;;;;;4.11;100.00;99383.87;4390990;32;34905;-74
2022/11/20 11:00:48;;;;;;;;;;;;;;;4.46;100.00;99391.91;4391339;32;34412;-74
2022/11/20 11:03:34;;;;;;;;;;;;;;;4.16;100.00;99397.44;4389886;32;34504;-74
2022/11/20 11:06:34;;;;;;;;;;;;;;;4.01;100.00;99417.25;4391477;32;33304;-74
2022/11/20 11:09:21;;;;;;;;;;;;;;;3.89;100.00;99397.75;4378621;32;34475;-74
2022/11/20 11:12:10;;;;;;;;;;;;;;;4.31;100.00;99393.88;4390947;32;36160;-74
2022/11/20 11:14:57;;;;;;;;;;;;;;;4.55;100.00;99404.91;4389952;32;35078;-73
2022/11/20 11:17:46;;;;;;;;;;;;;;;4.43;100.00;99400.59;4379125;32;32369;-75
2022/11/20 11:20:32;;;;;;;;;;;;;;;4.78;100.00;99415.16;4391469;32;35221;-74
2022/11/20 11:23:34;;;;;;;;;;;;;;;4.26;100.00;99416.38;4391194;32;35964;-73
2022/11/20 11:26:24;;;;;;;;;;;;;;;4.22;100.00;99409.91;4389938;32;34448;-74
2022/11/20 11:29:15;;;;;;;;;;;;;;;4.11;100.00;99411.00;4388512;32;34876;-74
2022/11/20 11:32:04;;;;;;;;;;;;;;;4.31;100.00;99413.66;4378212;32;34590;-74
2022/11/20 11:35:00;;;;;;;;;;;;;;;4.26;100.00;99410.97;4390349;32;34800;-71
2022/11/20 11:37:48;;;;;;;;;;;;;;;4.48;100.00;99406.03;4366227;32;34735;-71
2022/11/20 11:40:34;;;;;;;;;;;;;;;4.24;100.00;99410.41;4378291;32;34438;-71
2022/11/20 11:46:33;;;;;;;;;;;;;;;5.05;100.00;99397.63;4378344;32;35059;-72
2022/11/20 11:49:19;;;;;;;;;;;;;;;4.60;100.00;99391.34;4388790;32;34219;-72
2022/11/20 11:52:19;;;;;;;;;;;;;;;4.43;100.00;99386.25;4386094;32;33559;-71
2022/11/20 11:55:06;;;;;;;;;;;;;;;4.67;100.00;99375.56;4390193;32;34473;-73
2022/11/20 11:57:59;;;;;;;;;;;;;;;5.23;100.00;99375.25;4390126;32;33615;-73
2022/11/20 12:00:57;;;;;;;;;;;;;;;4.82;100.00;99378.22;4389376;32;33234;-72
2022/11/20 12:03:44;;;;;;;;;;;;;;;5.16;100.00;99372.03;4379458;32;32762;-73
2022/11/20 12:06:31;;;;;;;;;;;;;;;4.95;100.00;99379.47;4377526;32;34807;-73
2022/11/20 12:09:17;;;;;;;;;;;;;;;5.48;100.00;99370.72;4374754;32;33314;-73
2022/11/20 12:12:11;;;;;;;;;;;;;;;5.45;100.00;99379.44;4389416;32;35086;-73
2022/11/20 12:14:57;;;;;;;;;;;;;;;5.44;100.00;99372.41;4389071;32;32358;-73
2022/11/20 12:17:43;;;;;;;;;;;;;;;5.66;100.00;99370.03;4389128;32;34534;-73
2022/11/20 12:20:30;;;;;;;;;;;;;;;5.40;100.00;99370.22;4377128;32;36093;-74
2022/11/20 12:23:18;;;;;;;;;;;;;;;4.89;100.00;99375.97;4389635;32;34900;-74
2022/11/20 12:26:06;;;;;;;;;;;;;;;5.24;100.00;99360.59;4375350;32;33653;-74
2022/11/20 12:29:04;;;;;;;;;;;;;;;5.15;100.00;99364.97;4378819;32;34449;-73
2022/11/20 12:31:53;;;;;;;;;;;;;;;4.90;100.00;99358.63;4390616;32;33611;-74
2022/11/20 12:34:53;;;;;;;;;;;;;;;5.14;100.00;99353.31;4390480;32;34352;-73
2022/11/20 12:37:42;;;;;;;;;;;;;;;5.67;100.00;99347.19;4377385;32;33757;-74
2022/11/20 12:40:31;;;;;;;;;;;;;;;5.58;100.00;99352.44;4390665;32;34884;-73
2022/11/20 12:46:27;;;;;;;;;;;;;;;4.84;100.00;99357.03;4379929;32;33247;-72
2022/11/20 12:49:22;;;;;;;;;;;;;;;5.13;100.00;99362.56;4385601;32;34006;-73
2022/11/20 12:52:09;;;;;;;;;;;;;;;5.05;100.00;99359.63;4389707;32;34467;-74
2022/11/20 12:54:58;;;;;;;;;;;;;;;5.10;100.00;99368.56;4389655;32;34645;-73
2022/11/20 12:58:02;;;;;;;;;;;;;;;5.30;100.00;99366.78;4389820;32;34359;-73
2022/11/20 13:01:39;;;;;;;;;;;;;;;5.05;100.00;99378.63;4391149;32;33831;-73
2022/11/20 13:04:32;;;;;;;;;;;;;;;5.26;100.00;99371.16;4386200;32;32946;-73
2022/11/20 13:07:18;;;;;;;;;;;;;;;4.88;100.00;99379.81;4386460;32;35290;-73
2022/11/20 13:10:04;;;;;;;;;;;;;;;4.86;100.00;99362.16;4377345;32;34701;-74
2022/11/20 13:13:08;;;;;;;;;;;;;;;5.58;100.00;99368.75;4388758;32;32676;-73
2022/11/20 13:15:56;;;;;;;;;;;;;;;5.67;100.00;99374.38;4389248;32;34509;-73
2022/11/20 13:18:42;;;;;;;;;;;;;;;5.00;100.00;99373.22;4377455;32;36119;-73
2022/11/20 13:21:35;;;;;;;;;;;;;;;4.82;100.00;99377.41;4376816;32;32979;-73
2022/11/20 13:24:26;;;;;;;;;;;;;;;5.01;100.00;99369.41;4388726;32;34884;-73
2022/11/20 13:27:12;;;;;;;;;;;;;;;5.39;100.00;99365.91;4389445;32;34981;-73
2022/11/20 13:30:00;;;;;;;;;;;;;;;5.43;100.00;99359.91;4388644;32;35138;-73
2022/11/20 13:32:53;;;;;;;;;;;;;;;5.02;100.00;99354.75;4387426;32;34622;-73
2022/11/20 13:35:54;;;;;;;;;;;;;;;5.49;100.00;99353.31;4389787;32;33288;-73
2022/11/20 13:38:40;;;;;;;;;;;;;;;5.64;100.00;99328.75;4388756;32;34286;-73
2022/11/20 13:41:35;;;;;;;;;;;;;;;5.29;100.00;99335.28;4388904;32;36056;-73
2022/11/20 13:44:23;;;;;;;;;;;;;;;5.58;100.00;99327.19;4377400;32;34723;-73
2022/11/20 13:47:20;;;;;;;;;;;;;;;5.63;100.00;99316.22;4388416;32;34094;-73
2022/11/20 13:50:08;;;;;;;;;;;;;;;5.05;100.00;99324.31;4387735;32;34182;-73
2022/11/20 13:53:03;;;;;;;;;;;;;;;5.17;100.00;99325.56;4389336;32;36291;-73
2022/11/20 13:55:50;;;;;;;;;;;;;;;5.28;100.00;99336.38;4378174;32;33164;-73
2022/11/20 13:58:36;;;;;;;;;;;;;;;4.98;100.00;99327.38;4388368;32;34088;-73
2022/11/20 14:01:26;;;;;;;;;;;;;;;5.31;100.00;99311.34;4389105;32;35777;-73
2022/11/20 14:04:18;;;;;;;;;;;;;;;5.02;100.00;99312.12;4388391;32;36155;-73
2022/11/20 14:07:05;;;;;;;;;;;;;;;4.91;100.00;99316.78;4388202;32;35822;-73
2022/11/20 14:09:52;;;;;;;;;;;;;;;5.01;100.00;99317.81;4387943;32;34507;-73
2022/11/20 14:12:38;;;;;;;;;;;;;;;5.04;100.00;99318.09;4376873;32;33842;-73
2022/11/20 14:15:31;;;;;;;;;;;;;;;4.81;100.00;99322.31;4389233;32;35498;-73
2022/11/20 14:18:23;;;;;;;;;;;;;;;4.68;100.00;99322.91;4378524;32;35815;-73
2022/11/20 14:21:09;;;;;;;;;;;;;;;4.55;100.00;99329.75;4377348;32;34025;-73
2022/11/20 14:24:05;;;;;;;;;;;;;;;4.26;100.00;99337.75;4389423;32;35316;-73
2022/11/20 14:26:51;;;;;;;;;;;;;;;4.45;100.00;99336.03;4377567;32;34363;-73
2022/11/20 14:29:37;;;;;;;;;;;;;;;4.28;100.00;99336.38;4386745;32;35635;-72
2022/11/20 14:32:24;;;;;;;;;;;;;;;4.75;100.00;99336.97;4376998;32;33646;-73
2022/11/20 14:35:13;;;;;;;;;;;;;;;4.20;100.00;99346.97;4376341;32;34206;-73
2022/11/20 14:38:00;;;;;;;;;;;;;;;4.21;100.00;99346.72;4386447;32;36115;-73
2022/11/20 14:40:46;;;;;;;;;;;;;;;4.60;100.00;99350.63;4389826;32;35653;-73
2022/11/20 14:43:33;;;;;;;;;;;;;;;4.29;100.00;99354.25;4379458;32;34072;-73
2022/11/20 14:46:18;;;;;;;;;;;;;;;4.33;100.00;99351.84;4380753;32;35676;-73
2022/11/20 14:49:05;;;;;;;;;;;;;;;4.06;100.00;99352.16;4379433;32;34825;-73
2022/11/20 14:52:00;;;;;;;;;;;;;;;4.20;100.00;99361.34;4389066;32;35641;-73
2022/11/20 14:54:59;;;;;;;;;;;;;;;4.53;100.00;99366.41;4380062;32;35015;-72